Time;durP1;ratioP1;P1;durP2;ratioP2;P2;SDS_P1;SDS_P2;PMS_P1;PMS_P2;Temp;Humidity;BMP_temperature;BMP_pressure;BME280_temperature;BME280_humidity;BME280_pressure;Samples;Min_cycle;Max_cycle;Signal;HPM_P1;HPM_P2
2021/08/17 00:01:12;;;;;;;0.40;0.40;;;12.10;99.90;;;;;;6345198;22;20473;-94
2021/08/17 00:03:39;;;;;;;0.50;0.30;;;12.10;99.90;;;;;;6345337;22;20382;-93
2021/08/17 00:06:07;;;;;;;0.20;0.20;;;12.10;99.90;;;;;;6345072;22;20395;-94
2021/08/17 00:08:34;;;;;;;0.20;0.20;;;12.00;99.90;;;;;;6344375;22;20386;-91
2021/08/17 00:11:06;;;;;;;0.60;0.40;;;12.10;99.90;;;;;;6346691;22;20434;-95
2021/08/17 00:13:33;;;;;;;0.20;0.20;;;12.00;99.90;;;;;;6345471;22;20375;-96
2021/08/17 00:16:01;;;;;;;0.70;0.50;;;12.00;99.90;;;;;;6374766;22;20471;-93
2021/08/17 00:18:28;;;;;;;0.10;0.10;;;12.00;99.90;;;;;;6367105;22;20438;-93
2021/08/17 00:20:59;;;;;;;0.10;0.10;;;12.00;99.90;;;;;;6357625;22;20398;-92
2021/08/17 00:23:26;;;;;;;0.30;0.30;;;12.00;99.90;;;;;;6347754;22;20375;-94
2021/08/17 00:25:53;;;;;;;0.20;0.20;;;12.00;99.90;;;;;;6347069;22;20379;-94
2021/08/17 00:28:20;;;;;;;0.20;0.20;;;12.00;99.90;;;;;;6347387;22;20386;-95
2021/08/17 00:30:47;;;;;;;0.30;0.30;;;12.00;99.90;;;;;;6347746;22;20375;-96
2021/08/17 00:33:17;;;;;;;0.10;0.10;;;12.00;99.90;;;;;;6348616;22;20385;-93
2021/08/17 00:35:44;;;;;;;0.50;0.25;;;12.00;99.90;;;;;;6350965;22;20375;-94
2021/08/17 00:38:13;;;;;;;0.30;0.30;;;12.00;99.90;;;;;;6348686;22;20387;-95
2021/08/17 00:40:40;;;;;;;0.10;0.10;;;12.00;99.90;;;;;;6349772;22;20390;-96
2021/08/17 00:43:10;;;;;;;0.35;0.35;;;12.00;99.90;;;;;;6321502;22;20379;-94
2021/08/17 00:45:37;;;;;;;0.30;0.30;;;12.00;99.90;;;;;;6347272;22;20382;-95
2021/08/17 00:48:07;;;;;;;0.50;0.50;;;12.00;99.90;;;;;;6350018;22;20363;-95
2021/08/17 00:50:38;;;;;;;0.20;0.20;;;12.00;99.90;;;;;;6323240;22;20852;-95
2021/08/17 00:53:06;;;;;;;0.20;0.20;;;12.00;99.90;;;;;;6350784;22;20462;-95
2021/08/17 00:55:33;;;;;;;0.35;0.35;;;12.00;99.90;;;;;;6346813;22;20410;-94
2021/08/17 00:58:02;;;;;;;0.10;0.10;;;12.00;99.90;;;;;;6349568;22;20375;-95
2021/08/17 01:00:31;;;;;;;0.50;0.40;;;12.00;99.90;;;;;;6349342;22;20425;-96
2021/08/17 01:03:06;;;;;;;0.20;0.20;;;12.00;99.90;;;;;;6350388;22;20386;-94
2021/08/17 01:05:33;;;;;;;1.10;0.30;;;12.00;99.90;;;;;;6354892;22;20379;-95
2021/08/17 01:08:14;;;;;;;0.10;0.10;;;12.00;99.90;;;;;;6354076;22;20370;-92
2021/08/17 01:10:44;;;;;;;0.30;0.30;;;12.00;99.90;;;;;;6356043;22;20413;-94
2021/08/17 01:13:12;;;;;;;0.63;0.63;;;12.00;99.90;;;;;;6357150;22;20759;-95
2021/08/17 01:15:45;;;;;;;0.30;0.30;;;12.00;99.90;;;;;;6359393;22;20382;-94
2021/08/17 01:18:33;;;;;;;0.20;0.20;;;12.00;99.90;;;;;;6359129;22;20371;-95
2021/08/17 01:21:30;;;;;;;0.20;0.20;;;12.00;99.90;;;;;;6278431;22;20478;-96
2021/08/17 01:24:41;;;;;;;0.20;0.20;;;11.90;99.90;;;;;;6357338;22;20500;-95
2021/08/17 01:27:13;;;;;;;0.20;0.20;;;11.90;99.90;;;;;;6352470;22;20385;-95
2021/08/17 01:29:43;;;;;;;0.15;0.15;;;11.90;99.90;;;;;;6353778;22;20393;-95
2021/08/17 01:32:12;;;;;;;0.20;0.20;;;11.80;99.90;;;;;;6349495;22;20462;-96
2021/08/17 01:34:40;;;;;;;0.10;0.10;;;11.80;99.90;;;;;;6347290;22;20420;-95
2021/08/17 01:37:07;;;;;;;1.80;0.70;;;11.80;99.90;;;;;;6347883;22;20376;-94
2021/08/17 01:39:35;;;;;;;0.10;0.10;;;11.80;99.90;;;;;;6348868;22;20385;-95
2021/08/17 01:42:04;;;;;;;0.32;0.32;;;11.80;99.90;;;;;;6347388;22;20470;-94
2021/08/17 01:44:32;;;;;;;0.10;0.10;;;11.70;99.90;;;;;;6377736;22;20420;-92
2021/08/17 01:46:59;;;;;;;0.10;0.10;;;11.60;99.90;;;;;;6350313;22;20375;-96
2021/08/17 01:49:27;;;;;;;0.10;0.10;;;11.60;99.90;;;;;;6329059;22;20883;-93
2021/08/17 01:51:56;;;;;;;0.10;0.10;;;11.40;99.90;;;;;;6351184;22;20375;-95
2021/08/17 01:54:24;;;;;;;0.10;0.10;;;11.40;99.90;;;;;;6352784;22;20387;-94
2021/08/17 01:56:53;;;;;;;0.10;0.10;;;11.40;99.90;;;;;;6352125;22;20364;-96
2021/08/17 02:02:13;;;;;;;0.10;0.10;;;11.20;99.90;;;;;;6382970;22;20397;-93
2021/08/17 02:04:45;;;;;;;0.10;0.10;;;11.20;99.90;;;;;;6356110;22;20406;-94
2021/08/17 02:07:54;;;;;;;0.30;0.30;;;11.20;99.90;;;;;;6361214;22;20405;-96
2021/08/17 02:10:39;;;;;;;0.50;0.50;;;11.10;99.90;;;;;;6353745;22;20383;-95
2021/08/17 02:13:07;;;;;;;0.20;0.20;;;11.00;99.90;;;;;;6296543;22;20463;-95
2021/08/17 02:16:20;;;;;;;0.10;0.10;;;10.90;99.90;;;;;;6353004;22;20861;-93
2021/08/17 02:19:08;;;;;;;0.13;0.13;;;10.80;99.90;;;;;;6352237;22;20413;-96
2021/08/17 02:21:45;;;;;;;0.30;0.30;;;10.90;99.90;;;;;;6352107;22;20464;-96
2021/08/17 02:24:18;;;;;;;0.10;0.10;;;10.80;99.90;;;;;;6320660;22;20403;-93
2021/08/17 02:26:57;;;;;;;0.10;0.10;;;10.80;99.90;;;;;;6346631;22;20694;-95
2021/08/17 02:30:07;;;;;;;0.20;0.20;;;10.90;99.90;;;;;;6305471;22;20845;-95
2021/08/17 02:32:40;;;;;;;0.10;0.10;;;10.80;99.90;;;;;;6347926;22;20404;-96
2021/08/17 02:35:28;;;;;;;0.10;0.10;;;10.80;99.90;;;;;;6325827;22;20365;-94
2021/08/17 02:38:14;;;;;;;0.00;0.00;;;10.80;99.90;;;;;;6345657;22;20373;-94
2021/08/17 02:41:02;;;;;;;0.15;0.15;;;10.70;99.90;;;;;;6346279;22;20380;-93
2021/08/17 02:44:00;;;;;;;0.10;0.10;;;10.70;99.90;;;;;;6317441;22;20471;-94
2021/08/17 02:47:26;;;;;;;2.05;1.15;;;10.70;99.90;;;;;;6271709;22;20424;-92
2021/08/17 02:50:23;;;;;;;0.10;0.10;;;10.70;99.90;;;;;;6172396;23;20409;-92
2021/08/17 02:53:07;;;;;;;0.10;0.10;;;10.60;99.90;;;;;;6174078;23;20704;-94
2021/08/17 02:56:27;;;;;;;0.10;0.10;;;10.70;99.90;;;;;;6197753;23;20768;-94
2021/08/17 02:59:16;;;;;;;0.10;0.10;;;10.60;99.90;;;;;;6178852;23;20409;-96
2021/08/17 03:02:03;;;;;;;1.40;0.40;;;10.60;99.90;;;;;;6171256;23;20462;-96
2021/08/17 03:04:54;;;;;;;0.10;0.10;;;10.60;99.90;;;;;;6171982;23;20389;-92
2021/08/17 03:08:03;;;;;;;0.10;0.10;;;10.50;99.90;;;;;;6190482;23;20376;-93
2021/08/17 03:11:00;;;;;;;0.17;0.17;;;10.50;99.90;;;;;;6170798;23;20385;-95
2021/08/17 03:14:03;;;;;;;0.30;0.30;;;10.60;99.90;;;;;;6199707;23;20400;-91
2021/08/17 03:16:41;;;;;;;0.10;0.10;;;10.60;99.90;;;;;;6169885;23;20444;-92
2021/08/17 03:19:37;;;;;;;0.10;0.10;;;10.50;99.90;;;;;;6192943;23;20433;-96
2021/08/17 03:22:13;;;;;;;0.20;0.20;;;10.50;99.90;;;;;;6148319;23;20411;-92
2021/08/17 03:24:53;;;;;;;1.60;0.70;;;10.40;99.90;;;;;;6148301;23;20370;-96
2021/08/17 03:27:21;;;;;;;0.10;0.10;;;10.30;99.90;;;;;;6273928;22;20385;-92
2021/08/17 03:30:11;;;;;;;0.30;0.30;;;10.30;99.90;;;;;;6321236;22;20377;-96
2021/08/17 03:33:05;;;;;;;0.10;0.10;;;10.30;99.90;;;;;;6353208;22;20374;-94
2021/08/17 03:35:48;;;;;;;0.10;0.10;;;10.20;99.90;;;;;;6323485;22;20365;-95
2021/08/17 03:38:15;;;;;;;0.20;0.20;;;10.20;99.90;;;;;;6330177;22;20372;-94
2021/08/17 03:40:44;;;;;;;0.15;0.15;;;10.20;99.90;;;;;;6312362;22;20468;-95
2021/08/17 03:43:24;;;;;;;0.10;0.10;;;10.10;99.90;;;;;;6325230;22;20442;-95
2021/08/17 03:45:57;;;;;;;0.10;0.10;;;10.00;99.90;;;;;;6350578;22;20404;-95
2021/08/17 03:48:26;;;;;;;0.10;0.10;;;10.00;99.90;;;;;;6298637;22;20829;-96
2021/08/17 03:50:54;;;;;;;3.30;0.50;;;10.00;99.90;;;;;;6322920;22;20387;-96
2021/08/17 03:53:23;;;;;;;0.20;0.20;;;10.00;99.90;;;;;;6302714;22;20387;-96
2021/08/17 03:55:51;;;;;;;0.10;0.10;;;9.90;99.90;;;;;;6327698;22;20459;-96
2021/08/17 03:58:22;;;;;;;0.10;0.10;;;9.90;99.90;;;;;;6330333;22;20380;-96
2021/08/17 04:01:00;;;;;;;0.10;0.10;;;9.90;99.90;;;;;;6327364;22;20381;-96
2021/08/17 04:03:46;;;;;;;0.10;0.10;;;9.90;99.90;;;;;;6327663;22;20702;-96
2021/08/17 04:06:30;;;;;;;0.10;0.10;;;9.90;99.90;;;;;;6332635;22;20385;-94
2021/08/17 04:09:03;;;;;;;0.10;0.10;;;9.90;99.90;;;;;;6328607;22;20460;-95
2021/08/17 04:12:16;;;;;;;0.10;0.10;;;9.90;99.90;;;;;;6357770;22;20384;-93
2021/08/17 04:14:45;;;;;;;0.20;0.20;;;9.80;99.90;;;;;;6329074;22;20381;-95
2021/08/17 04:17:12;;;;;;;0.10;0.10;;;9.80;99.90;;;;;;6341863;22;20407;-95
2021/08/17 04:19:41;;;;;;;0.13;0.13;;;9.80;99.90;;;;;;6357880;22;20875;-94
2021/08/17 04:22:23;;;;;;;0.10;0.10;;;9.70;99.90;;;;;;6356537;22;20432;-95
2021/08/17 04:24:55;;;;;;;0.10;0.10;;;9.60;99.90;;;;;;6350059;22;20361;-96
2021/08/17 04:27:25;;;;;;;0.10;0.10;;;9.60;99.90;;;;;;6351540;22;20404;-95
2021/08/17 04:29:56;;;;;;;1.10;0.30;;;9.60;99.90;;;;;;6345091;22;20442;-96
2021/08/17 04:32:30;;;;;;;0.20;0.20;;;9.50;99.90;;;;;;6347854;22;20391;-94
2021/08/17 04:35:03;;;;;;;0.10;0.10;;;9.50;99.90;;;;;;6349658;22;20445;-95
2021/08/17 04:37:34;;;;;;;0.10;0.10;;;9.40;99.90;;;;;;6350701;22;20438;-95
2021/08/17 04:40:03;;;;;;;0.20;0.20;;;9.40;99.90;;;;;;6349924;22;20427;-95
2021/08/17 04:42:30;;;;;;;0.10;0.10;;;9.30;99.90;;;;;;6316512;22;20393;-95
2021/08/17 04:44:59;;;;;;;0.20;0.20;;;9.40;99.90;;;;;;6343925;22;20396;-94
2021/08/17 04:47:26;;;;;;;0.10;0.10;;;9.30;99.90;;;;;;6341227;22;20380;-93
2021/08/17 04:49:53;;;;;;;0.10;0.10;;;9.20;99.90;;;;;;6341523;22;20523;-95
2021/08/17 04:52:20;;;;;;;0.10;0.10;;;9.20;99.90;;;;;;6342084;22;20381;-94
2021/08/17 04:54:48;;;;;;;0.10;0.10;;;9.20;99.90;;;;;;6340834;22;20369;-94
2021/08/17 04:57:19;;;;;;;0.10;0.10;;;9.20;99.90;;;;;;6342698;22;20380;-94
2021/08/17 04:59:46;;;;;;;0.10;0.10;;;9.20;99.90;;;;;;6316279;22;20441;-95
2021/08/17 05:02:13;;;;;;;0.10;0.10;;;9.20;99.90;;;;;;6342212;22;20464;-95
2021/08/17 05:04:40;;;;;;;0.20;0.20;;;9.20;99.90;;;;;;6340555;22;20377;-94
2021/08/17 05:07:08;;;;;;;0.30;0.30;;;9.10;99.90;;;;;;6343607;22;20389;-95
2021/08/17 05:09:37;;;;;;;0.30;0.30;;;9.20;99.90;;;;;;6341902;22;20401;-95
2021/08/17 05:12:07;;;;;;;0.10;0.10;;;9.10;99.90;;;;;;6343084;22;20388;-95
2021/08/17 05:14:37;;;;;;;0.20;0.20;;;9.10;99.90;;;;;;6342186;22;20377;-95
2021/08/17 05:17:07;;;;;;;0.20;0.20;;;9.10;99.90;;;;;;6342663;22;20381;-94
2021/08/17 05:19:37;;;;;;;0.90;0.75;;;9.20;99.90;;;;;;6355687;22;20405;-94
2021/08/17 05:22:04;;;;;;;0.10;0.10;;;9.10;99.90;;;;;;6360051;22;20397;-96
2021/08/17 05:24:34;;;;;;;0.10;0.10;;;9.20;99.90;;;;;;6346658;22;20468;-96
2021/08/17 05:27:01;;;;;;;0.10;0.10;;;9.20;99.90;;;;;;6347787;22;20381;-94
2021/08/17 05:29:38;;;;;;;2.90;0.60;;;9.20;99.90;;;;;;6345043;22;20413;-96
2021/08/17 05:32:07;;;;;;;2.40;0.40;;;9.20;99.90;;;;;;6346413;22;20404;-95
2021/08/17 05:34:34;;;;;;;0.10;0.10;;;9.20;99.90;;;;;;6343964;22;20449;-93
2021/08/17 05:37:02;;;;;;;0.10;0.10;;;9.20;99.90;;;;;;6343164;22;20536;-94
2021/08/17 05:39:29;;;;;;;0.28;0.28;;;9.30;99.90;;;;;;6345355;22;20436;-96
2021/08/17 05:41:56;;;;;;;0.10;0.10;;;9.20;99.90;;;;;;6314051;22;20385;-95
2021/08/17 05:44:23;;;;;;;8.82;2.03;;;9.20;99.90;;;;;;6338981;22;20381;-94
2021/08/17 05:46:50;;;;;;;0.80;0.40;;;9.10;99.90;;;;;;6339827;22;20400;-95
2021/08/17 05:49:17;;;;;;;0.20;0.20;;;9.10;99.90;;;;;;6341712;22;20468;-95
2021/08/17 05:51:45;;;;;;;0.20;0.20;;;9.20;99.90;;;;;;6339960;22;20380;-94
2021/08/17 05:54:12;;;;;;;0.17;0.17;;;9.20;99.90;;;;;;6339862;22;20472;-95
2021/08/17 05:56:39;;;;;;;0.20;0.20;;;9.20;99.90;;;;;;6341594;22;20464;-95
2021/08/17 05:59:06;;;;;;;0.50;0.20;;;9.10;99.90;;;;;;6338335;22;20468;-93
2021/08/17 06:01:33;;;;;;;0.10;0.10;;;9.10;99.90;;;;;;6339678;22;20837;-96
2021/08/17 06:04:03;;;;;;;0.13;0.13;;;9.10;99.90;;;;;;6342416;22;20877;-94
2021/08/17 06:06:33;;;;;;;0.13;0.13;;;9.00;99.90;;;;;;6341234;22;20361;-95
2021/08/17 06:09:00;;;;;;;0.50;0.50;;;9.10;99.90;;;;;;6345651;22;20385;-95
2021/08/17 06:11:29;;;;;;;0.20;0.17;;;9.10;99.90;;;;;;6348857;22;20444;-96
2021/08/17 06:14:10;;;;;;;0.20;0.20;;;9.00;99.90;;;;;;6304444;22;20403;-95
2021/08/17 06:16:47;;;;;;;0.50;0.40;;;9.20;99.90;;;;;;6323475;22;20400;-96
2021/08/17 06:19:14;;;;;;;0.28;0.28;;;9.30;99.90;;;;;;6341528;22;20693;-94
2021/08/17 06:21:44;;;;;;;0.10;0.10;;;9.50;99.90;;;;;;6346195;22;20385;-96
2021/08/17 06:24:14;;;;;;;0.50;0.50;;;9.60;99.90;;;;;;6346508;22;20802;-96
2021/08/17 06:26:47;;;;;;;0.50;0.50;;;9.90;99.90;;;;;;6343119;22;20369;-94
2021/08/17 06:29:19;;;;;;;0.30;0.30;;;10.50;99.90;;;;;;6344118;22;20377;-96
2021/08/17 06:31:51;;;;;;;0.28;0.28;;;10.60;99.90;;;;;;6346104;22;20389;-96
2021/08/17 06:34:19;;;;;;;0.40;0.40;;;10.70;99.90;;;;;;6344485;22;20387;-96
2021/08/17 06:36:57;;;;;;;0.60;0.60;;;10.40;99.90;;;;;;6347646;22;20369;-95
2021/08/17 06:39:32;;;;;;;0.40;0.35;;;10.30;99.90;;;;;;6348592;22;20400;-95
2021/08/17 06:42:03;;;;;;;2.30;0.50;;;10.60;99.90;;;;;;6343891;22;20414;-95
2021/08/17 06:44:35;;;;;;;0.20;0.20;;;11.40;99.90;;;;;;6348567;22;20385;-96
2021/08/17 06:47:03;;;;;;;0.60;0.60;;;11.50;99.90;;;;;;6351736;22;20377;-95
2021/08/17 06:49:33;;;;;;;0.40;0.38;;;11.00;99.90;;;;;;6350084;22;20385;-94
2021/08/17 06:52:03;;;;;;;0.20;0.20;;;10.70;99.90;;;;;;6353710;22;20420;-95
2021/08/17 06:54:32;;;;;;;0.60;0.40;;;10.70;99.90;;;;;;6353803;22;20449;-96
2021/08/17 06:57:03;;;;;;;0.30;0.30;;;10.90;99.90;;;;;;6356949;22;20388;-96
2021/08/17 07:02:28;;;;;;;2.00;0.90;;;10.90;99.90;;;;;;6381492;22;20390;-94
2021/08/17 07:05:16;;;;;;;0.22;0.22;;;10.70;99.90;;;;;;6388584;22;20889;-95
2021/08/17 07:08:05;;;;;;;0.55;0.47;;;10.50;99.90;;;;;;6362690;22;20425;-96
2021/08/17 07:11:04;;;;;;;0.10;0.10;;;10.50;99.90;;;;;;6304780;22;20457;-94
2021/08/17 07:13:33;;;;;;;0.70;0.70;;;10.50;99.90;;;;;;6301674;22;20390;-96
2021/08/17 07:16:52;;;;;;;0.20;0.20;;;10.60;99.90;;;;;;6304866;22;20496;-96
2021/08/17 07:19:43;;;;;;;2.20;1.10;;;10.60;99.90;;;;;;6212769;23;20483;-95
2021/08/17 07:22:14;;;;;;;0.50;0.50;;;10.40;99.90;;;;;;6232797;22;20811;-95
2021/08/17 07:25:04;;;;;;;0.40;0.40;;;10.20;99.90;;;;;;6234015;23;20367;-96
2021/08/17 07:27:42;;;;;;;0.20;0.20;;;10.30;99.90;;;;;;6168266;23;20458;-96
2021/08/17 07:30:17;;;;;;;1.95;0.70;;;10.30;99.90;;;;;;6323503;22;20406;-96
2021/08/17 07:33:36;;;;;;;1.40;1.10;;;10.50;99.90;;;;;;6325078;22;20378;-96
2021/08/17 07:36:13;;;;;;;0.40;0.40;;;10.50;99.90;;;;;;6321683;22;20465;-94
2021/08/17 07:38:40;;;;;;;0.25;0.25;;;10.60;99.90;;;;;;6311068;22;20403;-96
2021/08/17 07:41:11;;;;;;;0.10;0.10;;;10.50;99.90;;;;;;6317920;22;20831;-94
2021/08/17 07:43:39;;;;;;;0.30;0.30;;;10.40;99.90;;;;;;6265878;22;20465;-96
2021/08/17 07:46:15;;;;;;;0.30;0.30;;;10.70;99.90;;;;;;6313699;22;20383;-95
2021/08/17 07:48:46;;;;;;;0.40;0.40;;;10.70;99.90;;;;;;6316541;22;20460;-96
2021/08/17 07:51:16;;;;;;;0.80;0.80;;;10.70;99.90;;;;;;6365623;22;20414;-95
2021/08/17 07:53:44;;;;;;;1.30;1.13;;;10.50;99.90;;;;;;6378478;22;20875;-94
2021/08/17 07:56:17;;;;;;;0.35;0.35;;;10.40;99.90;;;;;;6377708;22;20388;-96
2021/08/17 07:58:45;;;;;;;0.73;0.28;;;10.30;99.90;;;;;;6373740;22;20379;-94
2021/08/17 08:01:13;;;;;;;1.02;0.40;;;10.40;99.90;;;;;;6376399;22;20409;-95
2021/08/17 08:03:40;;;;;;;0.90;0.60;;;10.50;99.90;;;;;;6377372;22;20395;-95
2021/08/17 08:06:09;;;;;;;0.25;0.25;;;10.40;99.90;;;;;;6376776;22;20383;-95
2021/08/17 08:08:38;;;;;;;0.40;0.40;;;10.60;99.90;;;;;;6375912;22;20382;-95
2021/08/17 08:11:19;;;;;;;2.00;0.63;;;10.60;99.90;;;;;;6376180;22;20376;-95
2021/08/17 08:13:48;;;;;;;0.50;0.50;;;10.60;99.90;;;;;;6384588;22;20416;-96
2021/08/17 08:16:30;;;;;;;0.38;0.28;;;10.70;99.90;;;;;;6384073;22;20424;-95
2021/08/17 08:18:58;;;;;;;0.30;0.30;;;10.50;99.90;;;;;;6382777;22;20420;-95
2021/08/17 08:21:37;;;;;;;0.20;0.20;;;10.60;99.90;;;;;;6379624;22;20437;-95
2021/08/17 08:24:19;;;;;;;0.10;0.10;;;10.70;99.90;;;;;;6386664;22;20367;-96
2021/08/17 08:26:55;;;;;;;0.80;0.50;;;10.70;99.90;;;;;;6359550;22;20483;-95
2021/08/17 08:29:53;;;;;;;0.30;0.30;;;10.60;99.90;;;;;;6387917;22;20376;-96
2021/08/17 08:32:37;;;;;;;0.10;0.10;;;10.60;99.90;;;;;;6384073;22;20363;-96
2021/08/17 08:35:25;;;;;;;0.45;0.35;;;10.60;99.90;;;;;;6384198;22;20363;-96
2021/08/17 08:38:08;;;;;;;0.50;0.50;;;10.90;99.90;;;;;;6382185;22;20957;-96
2021/08/17 08:40:36;;;;;;;0.17;0.17;;;11.10;99.90;;;;;;6368864;22;20359;-96
2021/08/17 08:43:31;;;;;;;0.17;0.17;;;11.30;99.90;;;;;;6393207;22;20456;-96
2021/08/17 08:46:00;;;;;;;0.10;0.10;;;11.40;99.90;;;;;;6361364;22;20413;-96
2021/08/17 08:48:28;;;;;;;0.35;0.35;;;11.40;99.90;;;;;;6389010;22;20475;-96
2021/08/17 08:50:55;;;;;;;0.57;0.57;;;11.40;99.90;;;;;;6385066;22;20385;-96
2021/08/17 08:53:26;;;;;;;0.30;0.30;;;11.30;99.90;;;;;;6382886;22;20403;-96
2021/08/17 08:55:54;;;;;;;0.10;0.10;;;11.20;99.90;;;;;;6384505;22;20375;-96
2021/08/17 08:58:40;;;;;;;0.60;0.60;;;11.10;99.90;;;;;;6389403;22;20407;-96
2021/08/17 09:01:21;;;;;;;0.80;0.75;;;11.00;99.90;;;;;;6338932;22;20427;-95
2021/08/17 09:03:58;;;;;;;0.40;0.40;;;11.00;99.90;;;;;;6358833;22;20447;-95
2021/08/17 09:06:39;;;;;;;0.30;0.30;;;11.00;99.90;;;;;;6309292;22;20369;-96
2021/08/17 09:09:23;;;;;;;0.60;0.40;;;10.80;99.90;;;;;;6326195;22;20452;-96
2021/08/17 09:12:07;;;;;;;0.20;0.20;;;10.60;99.90;;;;;;6290649;22;20365;-93
2021/08/17 09:17:21;;;;;;;0.50;0.40;;;11.20;99.90;;;;;;6353049;22;20385;-96
2021/08/17 09:20:05;;;;;;;0.45;0.40;;;11.20;99.90;;;;;;6334171;22;20442;-96
2021/08/17 09:22:43;;;;;;;0.53;0.53;;;11.20;99.90;;;;;;6350603;22;20393;-96
2021/08/17 09:25:10;;;;;;;0.50;0.30;;;11.20;99.90;;;;;;6292246;22;20448;-96
2021/08/17 09:27:39;;;;;;;2.25;1.60;;;11.10;99.90;;;;;;6320836;22;20380;-96
2021/08/17 09:30:20;;;;;;;0.70;0.70;;;11.10;99.90;;;;;;6322307;22;20848;-96
2021/08/17 09:32:57;;;;;;;0.20;0.20;;;11.10;99.90;;;;;;6299223;22;20857;-96
2021/08/17 09:35:29;;;;;;;0.10;0.10;;;11.40;99.90;;;;;;6325627;22;20377;-96
2021/08/17 09:38:16;;;;;;;0.40;0.40;;;11.80;99.90;;;;;;6326326;22;20453;-96
2021/08/17 09:40:43;;;;;;;0.30;0.30;;;11.80;99.90;;;;;;6297056;22;20387;-96
2021/08/17 09:43:26;;;;;;;0.90;0.40;;;11.60;99.90;;;;;;6320118;22;20423;-95
2021/08/17 09:46:10;;;;;;;0.20;0.20;;;11.40;99.90;;;;;;6320117;22;20369;-96
2021/08/17 09:48:40;;;;;;;0.50;0.50;;;11.30;99.90;;;;;;6316782;22;20388;-96
2021/08/17 09:51:34;;;;;;;0.20;0.20;;;11.20;99.90;;;;;;6309339;22;20385;-95
2021/08/17 09:54:18;;;;;;;0.20;0.20;;;11.30;99.90;;;;;;6317598;22;20375;-94
2021/08/17 09:57:02;;;;;;;0.33;0.33;;;11.10;99.90;;;;;;6317782;22;20377;-96
2021/08/17 10:00:09;;;;;;;;;;;;;;;;;;;;;
2021/08/17 10:02:53;;;;;;;0.10;0.10;;;11.40;99.90;;;;;;6235938;23;20394;-95
2021/08/17 10:05:53;;;;;;;;;;;;;;;;;;;;;
2021/08/17 10:08:48;;;;;;;0.30;0.30;;;11.60;99.90;;;;;;6246238;23;20406;-96
2021/08/17 10:12:03;;;;;;;0.17;0.17;;;11.40;99.90;;;;;;6224047;23;20661;-95
2021/08/17 10:14:48;;;;;;;1.88;0.38;;;11.30;99.90;;;;;;6243739;22;20429;-96
2021/08/17 10:17:43;;;;;;;0.45;0.45;;;11.40;99.90;;;;;;6316990;22;20403;-95
2021/08/17 10:20:33;;;;;;;0.20;0.20;;;11.40;99.90;;;;;;6319854;22;20393;-96
2021/08/17 10:23:43;;;;;;;0.60;0.60;;;11.50;99.90;;;;;;6335778;22;20405;-96
2021/08/17 10:26:34;;;;;;;0.20;0.20;;;11.80;99.90;;;;;;6344536;22;20498;-95
2021/08/17 10:29:44;;;;;;;3.60;0.90;;;12.10;99.90;;;;;;6316745;22;20407;-96
2021/08/17 10:33:01;;;;;;;0.32;0.32;;;11.90;99.90;;;;;;6197449;23;20418;-96
2021/08/17 10:35:59;;;;;;;0.20;0.20;;;12.10;99.90;;;;;;6197284;23;20398;-95
2021/08/17 10:38:27;;;;;;;0.30;0.30;;;12.30;99.90;;;;;;6191568;23;20380;-95
2021/08/17 10:41:14;;;;;;;0.30;0.30;;;12.10;99.90;;;;;;6195293;23;20402;-95
2021/08/17 10:44:09;;;;;;;0.80;0.60;;;11.90;99.90;;;;;;6208233;22;20936;-94
2021/08/17 10:47:02;;;;;;;0.20;0.20;;;12.00;99.90;;;;;;6313931;22;20380;-94
2021/08/17 10:49:44;;;;;;;0.20;0.20;;;12.00;99.90;;;;;;6318182;22;20409;-96
2021/08/17 10:52:55;;;;;;;0.10;0.10;;;12.20;99.90;;;;;;6334429;22;20420;-96
2021/08/17 13:33:15;;;;;;;6.28;2.80;;;15.70;99.90;;;;;;6353192;22;20461;-94
2021/08/17 13:35:42;;;;;;;6.00;2.58;;;15.00;99.90;;;;;;6349356;22;20414;-94
2021/08/17 13:38:12;;;;;;;13.43;3.42;;;14.80;99.90;;;;;;6352577;22;20897;-94
2021/08/17 13:40:39;;;;;;;23.05;4.10;;;14.80;99.90;;;;;;6350279;22;20494;-94
2021/08/17 13:43:06;;;;;;;12.60;3.60;;;15.30;99.90;;;;;;6360279;22;20402;-93
2021/08/17 13:45:33;;;;;;;7.90;2.70;;;15.40;99.90;;;;;;6359972;22;20371;-93
2021/08/17 13:48:01;;;;;;;5.63;2.50;;;15.00;99.90;;;;;;6349282;22;20383;-96
2021/08/17 13:50:28;;;;;;;5.88;2.75;;;14.60;99.90;;;;;;6349328;22;20375;-93
2021/08/17 13:52:58;;;;;;;4.83;2.90;;;14.30;99.90;;;;;;6355267;22;20413;-95
2021/08/17 13:55:30;;;;;;;4.80;2.60;;;14.30;99.90;;;;;;6350734;22;20871;-94
2021/08/17 14:01:15;;;;;;;4.03;2.20;;;14.30;99.90;;;;;;6254245;23;20390;-95
2021/08/17 14:03:46;;;;;;;5.82;2.90;;;14.30;99.90;;;;;;6248337;23;20906;-94
2021/08/17 14:06:17;;;;;;;7.05;2.40;;;14.40;99.90;;;;;;6247548;23;20382;-94
2021/08/17 14:08:47;;;;;;;5.72;2.60;;;15.20;99.90;;;;;;6247568;23;20469;-94
2021/08/17 14:11:17;;;;;;;5.13;2.65;;;15.20;99.90;;;;;;6244484;23;20473;-94
2021/08/17 14:13:46;;;;;;;5.88;2.45;;;15.10;99.90;;;;;;6244398;23;20383;-94
2021/08/17 14:16:15;;;;;;;4.63;2.60;;;14.90;99.90;;;;;;6244898;23;20406;-94
2021/08/17 14:18:43;;;;;;;7.23;2.67;;;15.10;99.90;;;;;;6245510;23;20470;-96
2021/08/17 14:21:15;;;;;;;6.95;2.83;;;15.50;99.90;;;;;;6245469;23;20860;-94
2021/08/17 14:23:46;;;;;;;4.80;2.70;;;15.70;99.90;;;;;;6249871;23;20405;-96
2021/08/17 14:26:32;;;;;;;4.13;2.40;;;16.30;99.90;;;;;;6252345;23;20445;-94
2021/08/17 14:32:19;;;;;;;5.55;2.83;;;16.20;99.90;;;;;;6323935;22;20466;-94
2021/08/17 14:35:01;;;;;;;5.63;2.95;;;16.30;99.90;;;;;;6295779;22;20374;-93
2021/08/17 14:37:32;;;;;;;4.90;2.58;;;15.90;99.90;;;;;;6315918;22;20407;-95
2021/08/17 14:40:01;;;;;;;8.32;2.72;;;15.60;99.90;;;;;;6313784;22;20378;-95
2021/08/17 14:42:32;;;;;;;5.18;2.55;;;15.10;99.90;;;;;;6266438;22;20383;-95
2021/08/17 14:45:06;;;;;;;6.07;3.10;;;14.80;99.90;;;;;;6292129;22;20424;-94
2021/08/17 14:47:36;;;;;;;7.32;2.72;;;14.60;99.90;;;;;;6286667;22;20498;-93
2021/08/17 14:50:04;;;;;;;5.72;2.78;;;14.70;99.90;;;;;;6280605;22;20383;-93
2021/08/17 14:52:33;;;;;;;5.05;2.40;;;14.90;99.90;;;;;;6281090;22;20892;-93
2021/08/17 14:55:00;;;;;;;4.97;2.67;;;15.10;99.90;;;;;;6281214;22;20397;-93
2021/08/17 14:57:27;;;;;;;7.72;2.85;;;15.20;99.90;;;;;;6281005;22;20393;-93
2021/08/17 14:59:54;;;;;;;7.50;2.85;;;15.10;99.90;;;;;;6281767;22;20860;-92
2021/08/17 15:02:21;;;;;;;6.63;2.60;;;14.80;99.90;;;;;;6283453;22;20387;-94
2021/08/17 15:04:49;;;;;;;10.82;2.90;;;14.40;99.90;;;;;;6285238;22;20657;-95
2021/08/17 15:07:16;;;;;;;6.70;2.92;;;14.00;99.90;;;;;;6284400;22;20384;-95
2021/08/17 15:09:43;;;;;;;9.02;2.90;;;14.00;99.90;;;;;;6285233;22;20390;-92
2021/08/17 15:13:10;;;;;;;;;;;;;;;;;;;;;
2021/08/17 15:33:30;;;;;;;8.88;2.90;;;13.80;99.90;;;;;;6316988;22;20378;-96
2021/08/17 15:35:57;;;;;;;6.67;2.67;;;13.70;99.90;;;;;;6263816;22;20788;-94
2021/08/17 15:38:26;;;;;;;9.30;2.60;;;13.70;99.90;;;;;;6285965;22;20383;-95
2021/08/17 15:40:56;;;;;;;7.50;2.70;;;14.00;99.90;;;;;;6290551;22;20406;-95
2021/08/17 15:43:28;;;;;;;8.30;2.60;;;14.50;99.90;;;;;;6263540;22;20396;-94
2021/08/17 15:46:09;;;;;;;5.90;2.60;;;14.90;99.90;;;;;;6298440;22;20390;-94
2021/08/17 15:48:46;;;;;;;5.82;2.50;;;16.00;99.90;;;;;;6269012;22;20379;-95
2021/08/17 15:51:40;;;;;;;11.80;2.63;;;16.80;99.90;;;;;;6294586;22;20462;-95
2021/08/17 15:54:32;;;;;;;6.60;2.60;;;17.00;99.90;;;;;;6293961;22;20374;-95
2021/08/17 15:57:01;;;;;;;7.00;2.70;;;16.40;99.90;;;;;;6287681;22;20393;-93
2021/08/17 15:59:47;;;;;;;6.40;2.17;;;16.10;99.90;;;;;;6288989;22;20473;-96
2021/08/17 16:02:15;;;;;;;6.07;2.40;;;16.30;99.90;;;;;;6285564;22;20762;-94
2021/08/17 16:04:44;;;;;;;11.32;2.70;;;16.40;99.90;;;;;;6288697;22;20401;-96
2021/08/17 16:07:27;;;;;;;7.05;2.70;;;16.20;99.90;;;;;;6288965;22;20405;-96
2021/08/17 16:09:55;;;;;;;6.50;2.53;;;15.90;99.90;;;;;;6290520;22;20367;-95
2021/08/17 16:12:22;;;;;;;7.22;2.70;;;15.50;99.90;;;;;;6286823;22;20382;-93
2021/08/17 16:15:27;;;;;;;6.30;2.60;;;15.40;99.90;;;;;;6300621;22;20373;-96
2021/08/17 16:17:58;;;;;;;6.65;2.60;;;15.00;99.90;;;;;;6292064;22;20437;-95
2021/08/17 16:20:32;;;;;;;9.55;2.75;;;14.70;99.90;;;;;;6293008;22;20386;-95
2021/08/17 16:23:05;;;;;;;8.20;2.60;;;14.30;99.90;;;;;;6318473;22;20408;-94
2021/08/17 16:25:34;;;;;;;9.48;2.95;;;14.00;99.90;;;;;;6292277;22;20390;-95
2021/08/17 16:28:12;;;;;;;8.63;2.85;;;13.90;99.90;;;;;;6284847;22;20378;-95
2021/08/17 16:31:01;;;;;;;8.15;3.10;;;14.00;99.90;;;;;;6299947;22;20385;-94
2021/08/17 16:33:42;;;;;;;9.60;2.92;;;14.00;99.90;;;;;;6320006;22;20414;-96
2021/08/17 16:36:17;;;;;;;7.82;3.08;;;13.80;99.90;;;;;;6320408;22;20380;-94
2021/08/17 16:39:11;;;;;;;;;;;;;;;;;;;;;
2021/08/17 18:00:25;;;;;;;6.38;3.50;;;11.40;99.90;;;;;;6379918;22;20375;-94
2021/08/17 18:03:44;;;;;;;7.80;4.55;;;11.40;99.90;;;;;;6354344;22;20375;-94
2021/08/17 18:06:47;;;;;;;7.68;3.60;;;11.30;99.90;;;;;;6203783;23;20419;-94
2021/08/17 18:09:42;;;;;;;8.88;3.60;;;11.20;99.90;;;;;;6231441;22;20395;-94
2021/08/17 18:15:34;;;;;;;9.70;4.00;;;11.20;99.90;;;;;;6372929;22;20387;-94
2021/08/17 20:58:21;;;;;;;;;;;;;;;;;;;;;